createdAt,value
2019-04-01T00:02:14.781Z,102702.80
2019-04-01T00:04:42.637Z,102700.17
2019-04-01T00:07:10.602Z,102701.48
2019-04-01T00:09:38.676Z,102699.77
2019-04-01T00:12:08.491Z,102700.18
2019-04-01T00:14:36.340Z,102698.45
2019-04-01T00:17:04.178Z,102697.58
2019-04-01T00:19:32.262Z,102699.31
2019-04-01T00:22:00.124Z,102697.16
2019-04-01T00:24:27.938Z,102699.74
2019-04-01T00:26:55.927Z,102694.56
2019-04-01T00:29:23.765Z,102696.27
2019-04-01T00:31:51.576Z,102698.44
2019-04-01T00:34:19.539Z,102697.14
2019-04-01T00:36:47.376Z,102686.33
2019-04-01T00:39:15.381Z,102683.31
2019-04-01T00:41:50.828Z,102699.30
2019-04-01T00:44:18.797Z,102693.67
2019-04-01T00:46:46.594Z,102685.44
2019-04-01T00:49:14.405Z,102691.44
2019-04-01T00:51:42.514Z,102690.62
2019-04-01T00:54:10.419Z,102688.47
2019-04-01T00:56:38.224Z,102684.58
2019-04-01T00:59:06.234Z,102691.44
2019-04-01T01:01:53.514Z,102690.97
2019-04-01T01:04:21.520Z,102495.13
2019-04-01T01:06:52.679Z,102684.93
2019-04-01T01:09:20.807Z,102686.70
2019-04-01T01:11:48.723Z,102683.19
2019-04-01T01:14:16.595Z,102687.94
2019-04-01T01:16:44.781Z,102682.30
2019-04-01T01:19:12.872Z,102683.12
2019-04-01T01:21:40.742Z,102678.38
2019-04-01T01:24:08.594Z,102678.02
2019-04-01T01:26:36.676Z,102673.23
2019-04-01T01:29:04.746Z,102649.00
2019-04-01T01:31:32.839Z,102675.38
2019-04-01T01:34:00.707Z,102674.05
2019-04-01T01:36:28.557Z,102674.05
2019-04-01T01:38:56.733Z,102673.16
2019-04-01T01:41:24.605Z,102667.08
2019-04-01T01:43:52.438Z,102666.64
2019-04-01T01:46:20.546Z,102666.23
2019-04-01T01:48:48.509Z,102669.22
2019-04-01T01:51:16.499Z,102661.00
2019-04-01T01:53:45.459Z,102661.45
2019-04-01T01:56:13.470Z,102663.59
2019-04-01T01:58:41.318Z,102661.80
2019-04-01T02:01:12.226Z,102636.75
2019-04-01T02:03:40.352Z,102659.59
2019-04-01T02:06:08.359Z,102657.02
2019-04-01T02:08:39.269Z,102652.73
2019-04-01T02:11:08.882Z,102651.84
2019-04-01T02:13:36.812Z,102657.02
2019-04-01T02:16:04.705Z,102654.42
2019-04-01T02:18:32.707Z,102650.09
2019-04-01T02:21:02.385Z,102639.79
2019-04-01T02:23:30.589Z,102631.11
2019-04-01T02:25:58.868Z,102647.05
2019-04-01T02:28:26.920Z,102646.65
2019-04-01T02:30:55.039Z,102637.20
2019-04-01T02:33:23.430Z,102639.34
2019-04-01T02:35:53.376Z,102643.22
2019-04-01T02:38:21.859Z,102631.57
2019-04-01T02:40:49.788Z,102628.52
2019-04-01T02:43:17.835Z,102634.12
2019-04-01T02:45:46.018Z,102635.02
2019-04-01T02:48:14.044Z,102627.69
2019-04-01T02:50:42.055Z,102627.19
2019-04-01T02:53:10.058Z,102628.93
2019-04-01T02:55:37.862Z,102626.78
2019-04-01T02:58:05.804Z,102627.13
2019-04-01T03:00:33.621Z,102625.38
2019-04-01T03:03:01.685Z,102620.20
2019-04-01T03:05:29.651Z,102620.72
2019-04-01T03:07:57.450Z,102616.77
2019-04-01T03:10:25.466Z,102617.63
2019-04-01T03:12:53.314Z,102615.92
2019-04-01T03:15:21.313Z,102611.13
2019-04-01T03:17:49.283Z,102608.55
2019-04-01T03:20:17.248Z,102599.42
2019-04-01T03:22:45.051Z,102609.45
2019-04-01T03:25:13.968Z,102602.98
2019-04-01T03:27:42.099Z,102606.41
2019-04-01T03:30:10.180Z,102608.95
2019-04-01T03:32:44.260Z,102607.77
2019-04-01T03:35:07.985Z,102606.88
2019-04-01T03:37:35.796Z,102606.82
2019-04-01T03:40:04.423Z,102606.86
2019-04-01T03:42:32.250Z,102603.83
2019-04-01T03:45:01.893Z,102605.17
2019-04-01T03:47:30.079Z,102598.26
2019-04-01T03:50:00.763Z,102598.66
2019-04-01T03:52:28.741Z,102596.02
2019-04-01T03:54:56.892Z,102575.77
2019-04-01T03:57:24.846Z,102592.23
2019-04-01T03:59:52.655Z,102591.68
2019-04-01T04:02:20.474Z,102598.59
2019-04-01T04:04:48.423Z,102598.64
2019-04-01T04:07:16.432Z,102590.89
2019-04-01T04:09:44.247Z,102591.30
2019-04-01T04:12:12.095Z,102589.61
2019-04-01T04:14:40.143Z,102593.89
2019-04-01T04:17:07.969Z,102582.69
2019-04-01T04:19:35.982Z,102583.58
2019-04-01T04:22:03.809Z,102587.02
2019-04-01T04:24:31.838Z,102586.16
2019-04-01T04:26:59.751Z,102584.81
2019-04-01T04:29:27.960Z,102578.41
2019-04-01T04:31:55.975Z,102578.86
2019-04-01T04:34:23.765Z,102579.30
2019-04-01T04:36:51.756Z,102567.62
2019-04-01T04:39:19.801Z,102580.55
2019-04-01T04:41:48.745Z,102581.40
2019-04-01T04:44:16.564Z,102580.14
2019-04-01T04:46:44.515Z,102580.95
2019-04-01T04:49:12.488Z,102581.00
2019-04-01T04:51:42.137Z,102580.95
2019-04-01T04:54:10.160Z,102581.38
2019-04-01T04:56:39.869Z,102577.91
2019-04-01T04:59:07.698Z,102580.05
2019-04-01T05:01:35.627Z,102577.95
2019-04-01T05:04:03.613Z,102587.00
2019-04-01T05:06:31.430Z,102577.91
2019-04-01T05:08:59.552Z,102580.88
2019-04-01T05:11:27.478Z,102580.47
2019-04-01T05:13:57.496Z,102583.86
2019-04-01T05:16:25.843Z,102580.86
2019-04-01T05:18:54.085Z,102573.05
2019-04-01T05:21:22.095Z,102570.02
2019-04-01T05:23:53.579Z,102573.89
2019-04-01T05:26:22.604Z,102570.92
2019-04-01T05:28:51.320Z,102576.09
2019-04-01T05:31:22.379Z,102562.25
2019-04-01T05:33:55.667Z,102570.91
2019-04-01T05:36:24.167Z,102581.63
2019-04-01T05:38:52.371Z,102572.13
2019-04-01T05:41:20.210Z,102576.09
2019-04-01T05:43:48.593Z,102564.45
2019-04-01T05:46:16.562Z,102566.66
2019-04-01T05:48:46.453Z,102561.09
2019-04-01T05:51:14.280Z,102569.28
2019-04-01T05:53:42.311Z,102568.45
2019-04-01T05:56:11.574Z,102565.41
2019-04-01T05:58:39.419Z,102564.57
2019-04-01T06:01:14.447Z,102557.64
2019-04-01T06:03:42.312Z,102558.94
2019-04-01T06:06:10.136Z,102562.44
2019-04-01T06:08:39.054Z,102567.71
2019-04-01T06:11:07.276Z,102568.61
2019-04-01T06:13:35.187Z,102570.02
2019-04-01T06:16:03.594Z,102560.54
2019-04-01T06:18:31.652Z,102567.05
2019-04-01T06:20:59.745Z,102559.64
2019-04-01T06:23:28.099Z,102557.41
2019-04-01T06:25:56.107Z,102552.51
2019-04-01T06:28:24.036Z,102558.53
2019-04-01T06:30:51.837Z,102548.64
2019-04-01T06:33:19.816Z,102555.09
2019-04-01T06:35:47.795Z,102556.45
2019-04-01T06:38:15.630Z,102544.80
2019-04-01T06:40:43.577Z,102550.02
2019-04-01T06:43:11.504Z,102546.17
2019-04-01T06:45:39.355Z,102545.80
2019-04-01T06:48:07.350Z,102534.13
2019-04-01T06:50:35.168Z,102534.13
2019-04-01T06:53:03.094Z,102538.89
2019-04-01T06:55:30.921Z,102536.19
2019-04-01T06:57:58.912Z,102526.22
2019-04-01T07:00:26.912Z,102533.14
2019-04-01T07:02:54.885Z,102538.80
2019-04-01T07:05:22.728Z,102530.13
2019-04-01T07:07:50.864Z,102521.53
2019-04-01T07:10:18.904Z,102528.48
2019-04-01T07:12:46.717Z,102529.31
2019-04-01T07:15:14.760Z,102524.07
2019-04-01T07:17:42.881Z,102521.37
2019-04-01T07:20:11.108Z,102509.28
2019-04-01T07:22:39.184Z,102521.71
2019-04-01T07:25:07.097Z,102523.00
2019-04-01T07:27:35.466Z,102518.60
2019-04-01T07:30:06.560Z,102517.22
2019-04-01T07:32:34.572Z,102521.02
2019-04-01T07:35:03.073Z,102517.52
2019-04-01T07:37:31.352Z,102517.90
2019-04-01T07:40:02.238Z,102512.52
2019-04-01T07:42:30.253Z,102508.03
2019-04-01T07:44:58.434Z,102503.17
2019-04-01T07:47:26.246Z,102505.84
2019-04-01T07:49:54.365Z,102497.94
2019-04-01T07:52:22.208Z,102496.61
2019-04-01T07:54:50.205Z,102493.91
2019-04-01T07:57:18.145Z,102489.38
2019-04-01T07:59:46.033Z,102484.78
2019-04-01T08:02:14.025Z,102488.35
2019-04-01T08:04:41.895Z,102481.48
2019-04-01T08:07:13.080Z,102478.97
2019-04-01T08:09:39.926Z,102476.13
2019-04-01T08:12:07.720Z,102482.88
2019-04-01T08:14:35.560Z,102475.54
2019-04-01T08:17:03.618Z,102469.43
2019-04-01T08:19:31.467Z,102469.11
2019-04-01T08:21:59.668Z,102470.22
2019-04-01T08:24:27.735Z,102472.32
2019-04-01T08:26:55.577Z,102478.93
2019-04-01T08:29:29.879Z,102475.92
2019-04-01T08:31:53.312Z,102473.67
2019-04-01T08:34:21.377Z,102469.84
2019-04-01T08:36:49.240Z,102464.96
2019-04-01T08:39:17.126Z,102459.02
2019-04-01T08:41:45.197Z,102458.00
2019-04-01T08:44:13.042Z,102449.72
2019-04-01T08:46:41.051Z,102456.70
2019-04-01T08:49:08.929Z,102449.20
2019-04-01T08:51:37.030Z,102443.77
2019-04-01T08:54:05.264Z,102443.38
2019-04-01T08:56:37.901Z,102438.51
2019-04-01T08:59:03.459Z,102441.38
2019-04-01T09:01:35.335Z,102434.34
2019-04-01T09:04:04.069Z,102438.44
2019-04-01T09:06:32.159Z,102429.66
2019-04-01T09:09:00.911Z,102427.20
2019-04-01T09:11:28.736Z,102424.98
2019-04-01T09:13:57.369Z,102430.06
2019-04-01T09:16:25.875Z,102421.83
2019-04-01T09:18:53.804Z,102418.91
2019-04-01T09:21:21.777Z,102417.30
2019-04-01T09:23:52.112Z,102414.97
2019-04-01T09:26:19.579Z,102410.52
2019-04-01T09:28:47.431Z,102420.47
2019-04-01T09:31:15.254Z,102406.11
2019-04-01T09:33:43.307Z,102407.02
2019-04-01T09:36:12.941Z,102410.75
2019-04-01T09:38:40.975Z,102406.24
2019-04-01T09:41:08.959Z,102409.84
2019-04-01T09:43:36.769Z,102400.87
2019-04-01T09:46:04.787Z,102393.39
2019-04-01T09:48:32.610Z,102392.91
2019-04-01T09:51:00.628Z,102395.39
2019-04-01T09:53:28.476Z,102389.42
2019-04-01T09:55:56.444Z,102382.37
2019-04-01T09:58:24.273Z,102384.80
2019-04-01T10:00:53.393Z,102377.97
2019-04-01T10:03:21.619Z,102377.27
2019-04-01T10:05:49.451Z,102370.42
2019-04-01T10:08:17.442Z,102367.33
2019-04-01T10:10:45.266Z,102365.16
2019-04-01T10:13:13.336Z,102361.05
2019-04-01T10:15:41.185Z,102358.72
2019-04-01T10:18:09.465Z,102355.61
2019-04-01T10:20:37.297Z,102347.05
2019-04-01T10:23:05.320Z,102343.64
2019-04-01T10:25:33.256Z,102334.83
2019-04-01T10:28:01.274Z,102329.86
2019-04-01T10:30:29.236Z,102328.39
2019-04-01T10:33:01.887Z,102324.08
2019-04-01T10:35:28.367Z,102308.04
2019-04-01T10:37:59.751Z,102306.00
2019-04-01T10:40:27.649Z,102310.67
2019-04-01T10:42:56.986Z,102298.73
2019-04-01T10:45:24.810Z,102300.20
2019-04-01T10:47:54.516Z,102300.87
2019-04-01T10:50:22.631Z,102291.48
2019-04-01T10:52:50.643Z,102295.11
2019-04-01T10:55:18.650Z,102289.30
2019-04-01T10:57:46.760Z,102283.52
2019-04-01T11:00:16.238Z,102277.57
2019-04-01T11:02:44.502Z,102272.89
2019-04-01T11:05:14.087Z,102266.95
2019-04-01T11:07:42.000Z,102260.16
2019-04-01T11:10:11.715Z,102261.00
2019-04-01T11:12:39.980Z,102255.47
2019-04-01T11:15:08.223Z,102249.59
2019-04-01T11:17:36.196Z,102245.34
2019-04-01T11:20:06.102Z,102246.41
2019-04-01T11:22:34.058Z,102243.64
2019-04-01T11:25:02.263Z,102241.05
2019-04-01T11:27:30.342Z,102240.11
2019-04-01T11:29:58.335Z,102230.64
2019-04-01T11:32:26.554Z,102228.98
2019-04-01T11:34:56.250Z,102219.30
2019-04-01T11:37:24.219Z,102220.63
2019-04-01T11:39:52.280Z,102216.10
2019-04-01T11:42:20.111Z,102214.01
2019-04-01T11:44:48.265Z,102209.02
2019-04-01T11:47:17.416Z,102208.34
2019-04-01T11:49:45.398Z,102203.60
2019-04-01T11:52:15.517Z,102201.22
2019-04-01T11:54:43.110Z,102204.16
2019-04-01T11:57:12.176Z,102195.45
2019-04-01T11:59:41.240Z,102189.14
2019-04-01T12:02:09.248Z,102187.30
2019-04-01T12:04:37.532Z,102184.81
2019-04-01T12:07:05.616Z,102183.83
2019-04-01T12:09:33.473Z,102172.95
2019-04-01T12:12:01.364Z,102170.74
2019-04-01T12:14:29.420Z,102167.59
2019-04-01T12:16:57.597Z,102159.11
2019-04-01T12:19:25.397Z,102159.28
2019-04-01T12:21:53.325Z,102153.69
2019-04-01T12:24:21.160Z,102155.14
2019-04-01T12:26:50.825Z,102145.83
2019-04-01T12:29:18.898Z,102142.11
2019-04-01T12:31:46.738Z,102141.75
2019-04-01T12:34:14.949Z,102137.52
2019-04-01T12:36:42.774Z,102133.50
2019-04-01T12:39:10.801Z,102122.11
2019-04-01T12:41:38.615Z,102121.15
2019-04-01T12:44:06.546Z,102117.39
2019-04-01T12:46:34.724Z,102111.32
2019-04-01T12:49:03.918Z,102112.13
2019-04-01T12:51:31.888Z,102108.42
2019-04-01T12:53:59.736Z,102105.48
2019-04-01T12:56:27.646Z,102095.50
2019-04-01T12:58:55.668Z,102091.45
2019-04-01T13:01:23.512Z,102094.59
2019-04-01T13:03:51.381Z,102089.84
2019-04-01T13:06:19.528Z,102083.94
2019-04-01T13:08:47.498Z,102077.17
2019-04-01T13:11:15.483Z,102070.06
2019-04-01T13:13:44.629Z,102067.41
2019-04-01T13:16:12.891Z,102062.21
2019-04-01T13:18:40.835Z,102059.67
2019-04-01T13:21:08.673Z,102055.30
2019-04-01T13:23:36.837Z,102047.92
2019-04-01T13:26:06.401Z,102039.31
2019-04-01T13:28:34.397Z,102030.41
2019-04-01T13:31:02.214Z,102034.64
2019-04-01T13:33:30.056Z,102029.65
2019-04-01T13:35:58.084Z,102025.66
2019-04-01T13:38:25.925Z,102026.00
2019-04-01T13:40:53.759Z,102020.56
2019-04-01T13:43:21.704Z,102013.12
2019-04-01T13:45:50.294Z,102011.20
2019-04-01T13:48:18.768Z,102007.17
2019-04-01T13:50:47.498Z,102001.45
2019-04-01T13:53:15.347Z,101994.00
2019-04-01T13:55:43.370Z,101996.78
2019-04-01T13:58:11.188Z,101994.33
2019-04-01T14:00:39.013Z,101991.27
2019-04-01T14:03:07.209Z,101981.95
2019-04-01T14:05:35.180Z,101982.08
2019-04-01T14:08:05.723Z,101968.05
2019-04-01T14:10:32.892Z,101973.39
2019-04-01T14:13:01.918Z,101973.97
2019-04-01T14:15:30.164Z,101955.11
2019-04-01T14:18:00.339Z,101968.19
2019-04-01T14:20:28.355Z,101955.41
2019-04-01T14:22:56.343Z,101957.98
2019-04-01T14:25:24.183Z,101956.48
2019-04-01T14:27:52.003Z,101946.88
2019-04-01T14:30:22.042Z,101944.44
2019-04-01T14:32:50.028Z,101938.19
2019-04-01T14:35:17.837Z,101932.98
2019-04-01T14:37:45.840Z,101929.28
2019-04-01T14:40:13.945Z,101925.28
2019-04-01T14:42:42.927Z,101917.94
2019-04-01T14:45:10.871Z,101916.03
2019-04-01T14:47:55.643Z,101908.27
2019-04-01T14:50:08.680Z,101910.59
2019-04-01T14:52:36.527Z,101903.77
2019-04-01T14:55:04.935Z,101900.59
2019-04-01T14:57:33.021Z,101886.94
2019-04-01T15:00:00.857Z,101892.55
2019-04-01T15:02:28.894Z,101890.25
2019-04-01T15:04:56.846Z,101879.94
2019-04-01T15:07:24.740Z,101883.31
2019-04-01T15:09:52.643Z,101888.55
2019-04-01T15:12:20.628Z,101868.77
2019-04-01T15:14:48.549Z,101866.86
2019-04-01T15:17:17.344Z,101867.03
2019-04-01T15:19:48.371Z,101862.45
2019-04-01T15:22:15.297Z,101864.28
2019-04-01T15:24:43.124Z,101854.87
2019-04-01T15:27:12.360Z,101848.20
2019-04-01T15:29:40.232Z,101846.19
2019-04-01T15:32:08.227Z,101843.75
2019-04-01T15:34:36.281Z,101837.95
2019-04-01T15:37:04.257Z,101835.07
2019-04-01T15:39:32.286Z,101833.72
2019-04-01T15:42:00.115Z,101830.58
2019-04-01T15:44:29.387Z,101828.77
2019-04-01T15:46:57.671Z,101829.65
2019-04-01T15:49:25.510Z,101828.78
2019-04-01T15:51:53.539Z,101819.72
2019-04-01T15:54:21.355Z,101809.02
2019-04-01T15:56:49.379Z,101815.73
2019-04-01T15:59:18.357Z,101807.16
2019-04-01T16:01:46.249Z,101798.83
2019-04-01T16:04:16.466Z,101794.98
2019-04-01T16:06:43.945Z,101801.14
2019-04-01T16:09:11.772Z,101789.75
2019-04-01T16:11:39.906Z,101787.45
2019-04-01T16:14:08.985Z,101789.14
2019-04-01T16:16:36.963Z,101789.48
2019-04-01T16:19:04.938Z,101778.46
2019-04-01T16:21:32.921Z,101774.13
2019-04-01T16:24:03.600Z,101772.52
2019-04-01T16:26:31.615Z,101769.31
2019-04-01T16:28:59.436Z,101772.34
2019-04-01T16:31:27.476Z,101769.28
2019-04-01T16:33:55.646Z,101769.52
2019-04-01T16:36:23.559Z,101773.56
2019-04-01T16:38:51.542Z,101770.23
2019-04-01T16:41:19.365Z,101773.25
2019-04-01T16:43:47.181Z,101770.70
2019-04-01T16:46:15.206Z,101768.53
2019-04-01T16:48:46.475Z,101770.64
2019-04-01T16:51:14.185Z,101760.95
2019-04-01T16:53:44.414Z,101774.31
2019-04-01T16:56:12.109Z,101767.35
2019-04-01T16:58:39.956Z,101762.67
2019-04-01T17:01:14.602Z,101755.69
2019-04-01T17:03:42.416Z,101749.80
2019-04-01T17:06:10.256Z,101752.63
2019-04-01T17:08:39.180Z,101754.20
2019-04-01T17:11:07.751Z,101752.39
2019-04-01T17:13:35.639Z,101756.34
2019-04-01T17:16:04.113Z,101747.41
2019-04-01T17:18:32.260Z,101750.38
2019-04-01T17:21:00.088Z,101751.64
2019-04-01T17:23:28.494Z,101743.11
2019-04-01T17:25:56.776Z,101737.58
2019-04-01T17:28:25.846Z,101742.45
2019-04-01T17:30:53.828Z,101742.68
2019-04-01T17:33:22.877Z,101737.86
2019-04-01T17:35:50.840Z,101737.95
2019-04-01T17:38:18.686Z,101739.85
2019-04-01T17:40:46.700Z,101729.57
2019-04-01T17:43:16.319Z,101729.69
2019-04-01T17:45:44.586Z,101727.41
2019-04-01T17:48:12.413Z,101727.05
2019-04-01T17:50:40.437Z,101723.52
2019-04-01T17:53:09.707Z,101727.91
2019-04-01T17:55:37.877Z,101727.20
2019-04-01T17:58:06.506Z,101727.34
2019-04-01T18:00:36.940Z,101720.85
2019-04-01T18:03:05.113Z,101722.77
2019-04-01T18:05:33.525Z,101714.48
2019-04-01T18:08:01.590Z,101721.00
2019-04-01T18:10:29.753Z,101714.91
2019-04-01T18:12:57.630Z,101718.47
2019-04-01T18:15:25.562Z,101714.77
2019-04-01T18:17:53.568Z,101713.17
2019-04-01T18:20:21.661Z,101717.59
2019-04-01T18:22:49.470Z,101721.08
2019-04-01T18:25:17.309Z,101717.05
2019-04-01T18:27:45.266Z,101721.22
2019-04-01T18:30:20.189Z,101715.80
2019-04-01T18:32:52.106Z,101714.46
2019-04-01T18:35:19.276Z,101716.73
2019-04-01T18:37:47.313Z,101713.84
2019-04-01T18:40:15.417Z,101712.16
2019-04-01T18:42:43.465Z,101712.34
2019-04-01T18:45:11.720Z,101712.52
2019-04-01T18:47:39.707Z,101711.44
2019-04-01T18:50:08.639Z,101709.58
2019-04-01T18:52:38.110Z,101710.97
2019-04-01T18:55:07.973Z,101707.00
2019-04-01T18:57:36.087Z,101701.67
2019-04-01T19:00:06.167Z,101712.91
2019-04-01T19:02:37.743Z,101706.23
2019-04-01T19:05:06.201Z,101713.03
2019-04-01T19:07:35.321Z,101713.38
2019-04-01T19:10:06.537Z,101719.47
2019-04-01T19:12:36.486Z,101719.81
2019-04-01T19:15:06.479Z,101710.88
2019-04-01T19:17:34.479Z,101719.44
2019-04-01T19:20:02.505Z,101723.03
2019-04-01T19:22:30.505Z,101712.69
2019-04-01T19:24:58.381Z,101720.67
2019-04-01T19:27:26.411Z,101715.73
2019-04-01T19:29:56.178Z,101711.13
2019-04-01T19:32:27.318Z,101714.52
2019-04-01T19:34:54.999Z,101715.23
2019-04-01T19:37:22.947Z,101712.84
2019-04-01T19:39:52.183Z,101705.52
2019-04-01T19:42:20.430Z,101708.77
2019-04-01T19:44:48.802Z,101706.65
2019-04-01T19:47:16.978Z,101699.83
2019-04-01T19:49:44.820Z,101705.59
2019-04-01T19:52:12.806Z,101702.36
2019-04-01T19:54:40.740Z,101694.22
2019-04-01T19:57:10.461Z,101691.77
2019-04-01T19:59:38.873Z,101692.79
2019-04-01T20:02:09.434Z,101691.17
2019-04-01T20:04:39.218Z,101688.83
2019-04-01T20:07:07.292Z,101687.52
2019-04-01T20:09:35.139Z,101683.22
2019-04-01T20:12:03.257Z,101682.77
2019-04-01T20:14:31.109Z,101676.06
2019-04-01T20:17:01.907Z,101679.64
2019-04-01T20:19:28.957Z,101671.52
2019-04-01T20:21:57.417Z,101675.04
2019-04-01T20:24:25.581Z,101676.38
2019-04-01T20:26:53.547Z,101666.81
2019-04-01T20:29:21.384Z,101666.23
2019-04-01T20:31:49.398Z,101658.74
2019-04-01T20:34:19.835Z,101656.13
2019-04-01T20:36:49.184Z,101649.77
2019-04-01T20:39:18.240Z,101650.67
2019-04-01T20:41:46.421Z,101646.40
2019-04-01T20:44:15.612Z,101636.44
2019-04-01T20:46:43.499Z,101634.61
2019-04-01T20:49:11.570Z,101641.14
2019-04-01T20:51:40.416Z,101628.85
2019-04-01T20:54:08.245Z,101633.00
2019-04-01T20:56:36.287Z,101625.88
2019-04-01T20:59:04.155Z,101624.66
2019-04-01T21:01:34.265Z,101621.98
2019-04-01T21:04:03.278Z,101620.44
2019-04-01T21:06:31.130Z,101617.48
2019-04-01T21:08:59.119Z,101619.19
2019-04-01T21:11:27.102Z,101615.63
2019-04-01T21:13:54.939Z,101610.11
2019-04-01T21:16:22.937Z,101614.73
2019-04-01T21:18:50.914Z,101608.73
2019-04-01T21:21:18.898Z,101621.38
2019-04-01T21:23:46.733Z,101610.20
2019-04-01T21:26:14.573Z,101606.23
2019-04-01T21:28:42.825Z,101600.48
2019-04-01T21:31:10.711Z,101601.06
2019-04-01T21:33:38.708Z,101598.10
2019-04-01T21:36:06.972Z,101591.28
2019-04-01T21:38:35.189Z,101587.84
2019-04-01T21:41:03.212Z,101593.24
2019-04-01T21:43:31.162Z,101590.28
2019-04-01T21:45:59.010Z,101588.92
2019-04-01T21:48:28.175Z,101579.42
2019-04-01T21:50:56.110Z,101578.05
2019-04-01T21:53:23.927Z,101579.36
2019-04-01T21:55:51.744Z,101572.36
2019-04-01T21:58:20.072Z,101566.49
2019-04-01T22:00:53.335Z,101569.16
2019-04-01T22:03:21.161Z,101559.19
2019-04-01T22:05:50.778Z,101558.31
2019-04-01T22:08:18.891Z,101559.27
2019-04-01T22:10:47.307Z,101550.41
2019-04-01T22:13:15.341Z,101540.80
2019-04-01T22:15:43.371Z,101541.76
2019-04-01T22:18:11.394Z,101538.72
2019-04-01T22:20:42.471Z,101534.34
2019-04-01T22:23:09.080Z,101535.75
2019-04-01T22:25:37.094Z,101535.11
2019-04-01T22:28:05.842Z,101528.17
2019-04-01T22:30:33.817Z,101531.67
2019-04-01T22:33:01.799Z,101524.39
2019-04-01T22:35:38.441Z,101526.92
2019-04-01T22:37:59.481Z,101495.23
2019-04-01T22:40:27.350Z,101506.67
2019-04-01T22:42:56.210Z,101505.61
2019-04-01T22:45:24.372Z,101503.41
2019-04-01T22:47:52.499Z,101497.86
2019-04-01T22:50:20.325Z,101495.09
2019-04-01T22:52:48.344Z,101488.38
2019-04-01T22:55:16.161Z,101482.05
2019-04-01T22:57:44.086Z,101482.41
2019-04-01T23:00:12.316Z,101478.00
2019-04-01T23:02:40.134Z,101473.73
2019-04-01T23:05:08.898Z,101470.77
2019-04-01T23:07:36.845Z,101463.35
2019-04-01T23:10:06.671Z,101462.83
2019-04-01T23:12:34.708Z,101459.92
2019-04-01T23:15:03.183Z,101456.06
2019-04-01T23:17:31.002Z,101450.69
2019-04-01T23:19:58.828Z,101451.67
2019-04-01T23:22:27.001Z,101449.30
2019-04-01T23:24:54.860Z,101444.85
2019-04-01T23:27:24.700Z,101430.75
2019-04-01T23:29:52.515Z,101430.24
2019-04-01T23:32:21.017Z,101433.85
2019-04-01T23:34:49.019Z,101432.60
2019-04-01T23:37:16.860Z,101428.23
2019-04-01T23:39:44.681Z,101433.25
2019-04-01T23:42:15.094Z,101421.79
2019-04-01T23:44:43.137Z,101417.66
2019-04-01T23:47:11.134Z,101417.18
2019-04-01T23:49:40.273Z,101411.55
2019-04-01T23:52:08.294Z,101407.34
2019-04-01T23:54:36.282Z,101399.23
2019-04-01T23:57:04.207Z,101404.38
2019-04-01T23:59:32.232Z,101399.52
